Pincourt, Canada
Current Conditions -  °F | °C
As of 6:00 AM on Friday 28 Nov 2014 (Local Time) from CYUL Reporting Station
Overcast Overcast  
Wind Chill: 18°   Ceiling: 4000
Heat Index: 25°   Visibility: 12mi
Dew Point: 21°   Wind: 6mph
Humidity: 86%   Direction: 250°WSW
Pressure: 30.07"   Gusts: NA
Location:  45.37°N, 73.98°W
Report Text: CYUL 281100Z 25005KT 12SM FEW010 OVC040 M04/M06 A3007 RMK SF1SC7 SLP184
Loading
Personal Weather Stations






























Interactive Weather Map New forecast layout! Learn more

10-Day Weather Forecast

Advertisements
Track Severe Weather on mobile